createdAt,value
2022-09-20T00:01:42.782Z,99958.22
2022-09-20T00:04:10.618Z,99962.13
2022-09-20T00:06:38.366Z,99956.94
2022-09-20T00:09:07.012Z,99955.44
2022-09-20T00:11:36.150Z,99948.63
2022-09-20T00:14:06.214Z,99931.81
2022-09-20T00:16:36.506Z,99949.28
2022-09-20T00:19:05.577Z,99941.28
2022-09-20T00:21:37.826Z,99949.16
2022-09-20T00:24:06.309Z,99947.56
2022-09-20T00:26:33.811Z,99945.25
2022-09-20T00:29:01.774Z,99944.16
2022-09-20T00:31:29.314Z,99954.56
2022-09-20T00:34:18.888Z,99944.09
2022-09-20T00:36:46.731Z,99947.41
2022-09-20T00:39:15.464Z,99952.50
2022-09-20T00:41:43.705Z,99946.59
2022-09-20T00:44:44.073Z,99945.44
2022-09-20T00:47:55.532Z,99912.25
2022-09-20T00:50:44.795Z,99931.94
2022-09-20T00:53:15.229Z,99937.69
2022-09-20T00:55:48.553Z,99942.06
2022-09-20T00:58:19.338Z,99943.38
2022-09-20T01:00:48.875Z,99947.75
2022-09-20T01:03:22.948Z,99949.16
2022-09-20T01:05:52.856Z,99941.06
2022-09-20T01:08:22.296Z,99941.44
2022-09-20T01:10:50.114Z,99946.84
2022-09-20T01:13:17.655Z,99935.50
2022-09-20T01:15:48.370Z,99935.31
2022-09-20T01:18:17.005Z,99935.13
2022-09-20T01:20:46.885Z,99940.09
2022-09-20T01:23:30.520Z,99931.72
2022-09-20T01:26:29.991Z,99926.75
2022-09-20T01:29:33.672Z,99923.97
2022-09-20T01:32:08.603Z,99929.22
2022-09-20T01:34:45.754Z,99926.25
2022-09-20T01:37:38.855Z,99930.78
2022-09-20T01:40:35.814Z,99932.94
2022-09-20T01:43:25.460Z,99919.44
2022-09-20T01:45:54.787Z,99916.75
2022-09-20T01:48:37.880Z,99915.00
2022-09-20T01:51:50.858Z,99907.31
2022-09-20T01:54:58.212Z,99909.13
2022-09-20T01:57:38.320Z,99906.28
2022-09-20T02:00:32.102Z,99916.41
2022-09-20T02:03:57.465Z,99903.66
2022-09-20T02:06:46.623Z,99905.91
2022-09-20T02:09:36.982Z,99916.50
2022-09-20T02:12:33.790Z,99900.97
2022-09-20T02:15:07.271Z,99916.59
2022-09-20T02:18:00.492Z,99911.94
2022-09-20T02:20:33.268Z,99916.59
2022-09-20T02:23:07.211Z,99924.03
2022-09-20T02:25:57.767Z,99913.81
2022-09-20T02:28:53.135Z,99919.09
2022-09-20T02:31:40.159Z,99918.38
2022-09-20T02:34:52.074Z,99914.75
2022-09-20T02:37:41.450Z,99912.44
2022-09-20T02:40:52.384Z,99912.94
2022-09-20T02:43:38.848Z,99912.00
2022-09-20T02:46:24.756Z,99897.88
2022-09-20T02:49:11.428Z,99912.38
2022-09-20T02:52:04.181Z,99909.00
2022-09-20T02:54:51.203Z,99893.88
2022-09-20T02:57:57.473Z,99901.22
2022-09-20T03:00:29.291Z,99906.59
2022-09-20T03:03:19.015Z,99904.66
2022-09-20T03:06:07.040Z,99914.97
2022-09-20T03:08:37.678Z,99912.84
2022-09-20T03:11:47.243Z,99914.31
2022-09-20T03:14:29.923Z,99916.34
2022-09-20T03:17:09.608Z,99912.00
2022-09-20T03:20:20.089Z,99911.63
2022-09-20T03:23:10.609Z,99917.66
2022-09-20T03:26:15.640Z,99912.25
2022-09-20T03:29:17.087Z,99918.94
2022-09-20T03:32:19.816Z,99909.28
2022-09-20T03:35:09.898Z,99899.69
2022-09-20T03:37:52.758Z,99909.75
2022-09-20T03:40:37.561Z,99904.97
2022-09-20T03:43:33.426Z,99898.56
2022-09-20T03:46:19.784Z,99899.22
2022-09-20T03:48:56.405Z,99872.66
2022-09-20T03:51:33.767Z,99906.19
2022-09-20T03:54:17.362Z,99899.94
2022-09-20T03:57:06.260Z,99906.81
2022-09-20T03:59:34.233Z,99911.66
2022-09-20T04:02:12.297Z,99909.31
2022-09-20T04:04:48.514Z,99917.78
2022-09-20T04:07:23.828Z,99919.19
2022-09-20T04:10:13.792Z,99915.72
2022-09-20T04:13:24.479Z,99913.94
2022-09-20T04:15:54.978Z,99907.53
2022-09-20T04:18:36.535Z,99916.13
2022-09-20T04:21:23.911Z,99901.00
2022-09-20T04:23:56.597Z,99903.28
2022-09-20T04:26:30.557Z,99904.09
2022-09-20T04:29:34.696Z,99906.19
2022-09-20T04:32:33.147Z,99904.03
2022-09-20T04:35:49.436Z,99898.97
2022-09-20T04:38:20.428Z,99914.75
2022-09-20T04:41:06.934Z,99903.88
2022-09-20T04:44:16.490Z,99921.25
2022-09-20T04:47:15.647Z,99918.94
2022-09-20T04:50:06.348Z,99944.78
2022-09-20T04:53:11.315Z,99970.16
2022-09-20T04:55:59.161Z,99955.72
2022-09-20T04:58:51.601Z,99961.72
2022-09-20T05:01:37.961Z,99971.38
2022-09-20T05:04:38.361Z,99958.94
2022-09-20T05:07:08.796Z,99947.69
2022-09-20T05:09:57.644Z,99953.28
2022-09-20T05:17:15.768Z,99960.09
2022-09-20T05:20:12.624Z,99966.91
2022-09-20T05:23:02.128Z,99963.34
2022-09-20T05:25:47.743Z,99955.94
2022-09-20T05:28:16.077Z,99958.00
2022-09-20T05:30:51.122Z,99965.47
2022-09-20T05:33:49.927Z,99965.41
2022-09-20T05:36:42.449Z,99962.00
2022-09-20T05:39:31.872Z,99972.56
2022-09-20T05:42:10.455Z,99960.34
2022-09-20T05:44:45.360Z,99958.91
2022-09-20T05:47:22.346Z,99944.94
2022-09-20T05:50:09.043Z,99953.34
2022-09-20T05:52:52.426Z,99958.38
2022-09-20T05:55:37.993Z,99965.38
2022-09-20T05:58:34.424Z,99956.97
2022-09-20T06:01:34.220Z,99956.47
2022-09-20T06:04:22.765Z,99959.25
2022-09-20T06:07:28.428Z,99954.19
2022-09-20T06:10:19.222Z,99946.28
2022-09-20T06:12:57.379Z,99950.31
2022-09-20T06:15:48.323Z,99953.78
2022-09-20T06:18:45.783Z,99954.53
2022-09-20T06:41:37.148Z,99977.75
2022-09-20T06:44:17.152Z,99976.88
2022-09-20T06:46:57.247Z,99972.88
2022-09-20T06:49:30.828Z,99992.81
2022-09-20T06:52:13.506Z,99978.53
2022-09-20T06:54:47.882Z,99980.03
2022-09-20T06:57:39.087Z,99977.09
2022-09-20T07:00:16.826Z,99972.94
2022-09-20T07:02:49.464Z,99979.44
2022-09-20T07:05:24.227Z,99990.88
2022-09-20T07:08:02.475Z,99984.88
2022-09-20T07:10:48.832Z,99997.88
2022-09-20T07:13:23.231Z,99991.75
2022-09-20T07:16:43.719Z,100004.97
2022-09-20T07:19:21.794Z,99996.63
2022-09-20T07:21:55.220Z,99999.53
2022-09-20T07:24:26.587Z,99999.31
2022-09-20T07:26:59.064Z,100015.75
2022-09-20T07:29:29.873Z,100007.63
2022-09-20T07:32:04.703Z,100004.59
2022-09-20T07:34:35.874Z,100011.81
2022-09-20T07:37:06.826Z,100018.38
2022-09-20T07:39:36.386Z,100007.28
2022-09-20T07:42:06.655Z,100009.38
2022-09-20T07:44:37.503Z,100017.19
2022-09-20T07:47:15.311Z,100016.41
2022-09-20T07:49:45.987Z,100009.38
2022-09-20T07:52:17.212Z,100009.56
2022-09-20T07:54:52.700Z,100016.19
2022-09-20T07:57:26.186Z,100021.69
2022-09-20T08:00:01.973Z,100019.13
2022-09-20T08:03:00.614Z,100006.19
2022-09-20T08:05:35.144Z,100009.84
2022-09-20T08:08:05.000Z,100018.09
2022-09-20T08:10:34.885Z,100022.97
2022-09-20T08:16:07.093Z,100012.81
2022-09-20T08:18:41.108Z,100013.94
2022-09-20T08:21:19.944Z,100004.00
2022-09-20T08:23:56.993Z,100018.00
2022-09-20T08:26:32.417Z,100003.53
2022-09-20T08:29:06.862Z,100017.91
2022-09-20T08:31:43.182Z,100018.84
2022-09-20T08:37:09.051Z,100017.53
2022-09-20T08:42:36.709Z,100009.09
2022-09-20T08:45:40.655Z,100008.59
2022-09-20T08:48:19.964Z,100006.06
2022-09-20T08:51:05.607Z,100013.63
2022-09-20T08:53:38.847Z,100010.19
2022-09-20T08:56:15.937Z,100019.78
2022-09-20T08:58:49.334Z,100015.97
2022-09-20T09:01:23.508Z,100001.97
2022-09-20T09:04:23.612Z,100006.00
2022-09-20T09:06:56.340Z,100000.75
2022-09-20T09:09:45.367Z,100001.56
2022-09-20T09:12:32.061Z,99999.31
2022-09-20T09:15:24.323Z,99985.16
2022-09-20T09:17:56.467Z,99988.84
2022-09-20T09:20:47.623Z,99978.66
2022-09-20T09:23:39.954Z,99983.44
2022-09-20T09:26:36.974Z,99982.31
2022-09-20T09:29:28.323Z,99974.56
2022-09-20T09:32:29.435Z,99970.97
2022-09-20T09:35:27.607Z,99964.41
2022-09-20T09:38:07.002Z,99965.28
2022-09-20T09:41:04.407Z,99954.44
2022-09-20T09:43:41.077Z,99963.09
2022-09-20T09:46:25.043Z,99957.41
2022-09-20T09:49:18.482Z,99956.75
2022-09-20T09:52:07.997Z,99954.09
2022-09-20T09:54:52.729Z,99958.19
2022-09-20T09:58:02.287Z,99951.22
2022-09-20T10:00:37.464Z,99936.06
2022-09-20T10:03:27.495Z,99942.94
2022-09-20T10:06:36.654Z,99948.22
2022-09-20T10:09:52.902Z,99948.59
2022-09-20T10:12:45.329Z,99943.78
2022-09-20T10:15:25.440Z,99940.13
2022-09-20T10:18:05.444Z,99941.25
2022-09-20T10:20:53.508Z,99939.19
2022-09-20T10:24:03.154Z,99950.72
2022-09-20T10:26:55.665Z,99938.88
2022-09-20T10:29:48.450Z,99950.97
2022-09-20T10:32:46.481Z,99943.16
2022-09-20T10:36:07.346Z,99949.84
2022-09-20T10:39:04.796Z,99949.41
2022-09-20T10:42:19.300Z,99953.34
2022-09-20T10:44:59.323Z,99948.84
2022-09-20T10:47:34.656Z,99952.19
2022-09-20T10:50:15.168Z,99949.59
2022-09-20T10:53:20.965Z,99948.41
2022-09-20T10:56:10.070Z,99941.03
2022-09-20T10:58:59.400Z,99936.50
2022-09-20T11:02:04.044Z,99936.41
2022-09-20T11:04:36.184Z,99938.78
2022-09-20T11:07:05.887Z,99939.31
2022-09-20T11:09:41.233Z,99933.16
2022-09-20T11:12:22.360Z,99932.72
2022-09-20T11:15:10.571Z,99931.34
2022-09-20T11:17:50.152Z,99935.97
2022-09-20T11:20:33.074Z,99936.72
2022-09-20T11:23:33.244Z,99913.69
2022-09-20T11:26:13.035Z,99924.31
2022-09-20T11:28:45.083Z,99926.38
2022-09-20T11:31:28.730Z,99915.03
2022-09-20T11:34:13.230Z,99910.38
2022-09-20T11:36:54.782Z,99914.94
2022-09-20T11:39:29.701Z,99918.91
2022-09-20T11:42:00.831Z,99906.75
2022-09-20T11:44:34.262Z,99914.59
2022-09-20T11:47:12.345Z,99908.00
2022-09-20T11:49:55.252Z,99901.72
2022-09-20T11:52:40.078Z,99906.44
2022-09-20T11:55:36.456Z,99904.53
2022-09-20T11:58:17.241Z,99911.00
2022-09-20T12:00:48.267Z,99907.69
2022-09-20T12:03:40.302Z,99904.56
2022-09-20T12:06:28.174Z,99898.75
2022-09-20T12:08:58.929Z,99897.63
2022-09-20T12:12:03.388Z,99888.50
2022-09-20T12:14:42.448Z,99901.56
2022-09-20T12:18:09.832Z,99895.97
2022-09-20T12:21:16.085Z,99881.47
2022-09-20T12:25:16.547Z,99886.81
2022-09-20T12:28:03.828Z,99892.44
2022-09-20T12:30:43.153Z,99866.31
2022-09-20T12:34:07.590Z,99933.94
2022-09-20T12:37:27.936Z,99927.88
2022-09-20T12:41:08.152Z,99907.31
2022-09-20T12:45:03.412Z,99900.25
2022-09-20T12:48:25.353Z,99897.22
2022-09-20T12:51:57.878Z,99885.69
2022-09-20T12:55:11.227Z,99882.78
2022-09-20T13:03:00.068Z,99868.59
2022-09-20T13:06:22.970Z,99873.91
2022-09-20T13:09:58.555Z,99875.56
2022-09-20T13:13:26.424Z,99873.56
2022-09-20T13:17:08.842Z,99863.03
2022-09-20T13:19:59.256Z,99861.25
2022-09-20T13:23:07.509Z,99848.91
2022-09-20T13:26:42.291Z,99848.94
2022-09-20T13:30:03.908Z,99853.00
2022-09-20T13:36:12.444Z,99849.63
2022-09-20T13:39:43.188Z,99845.28
2022-09-20T13:46:35.464Z,99844.22
2022-09-20T13:50:12.219Z,99846.41
2022-09-20T13:53:03.278Z,99838.16
2022-09-20T13:56:12.702Z,99837.06
2022-09-20T13:59:25.501Z,99846.63
2022-09-20T14:02:48.944Z,99833.38
2022-09-20T14:06:20.469Z,99838.41
2022-09-20T14:12:44.696Z,99849.16
2022-09-20T14:15:32.334Z,99865.19
2022-09-20T14:18:25.455Z,99880.97
2022-09-20T14:21:11.650Z,99868.09
2022-09-20T14:24:11.093Z,99876.59
2022-09-20T14:27:32.214Z,99877.84
2022-09-20T14:30:33.494Z,99882.56
2022-09-20T14:33:46.593Z,99887.13
2022-09-20T14:37:04.926Z,99893.47
2022-09-20T14:40:46.066Z,99887.28
2022-09-20T14:44:57.212Z,99888.31
2022-09-20T14:48:20.150Z,99897.06
2022-09-20T14:51:36.450Z,99891.94
2022-09-20T14:55:06.142Z,99895.13
2022-09-20T14:58:47.127Z,99899.97
2022-09-20T15:01:27.811Z,99894.63
2022-09-20T15:04:34.766Z,99896.00
2022-09-20T15:07:15.465Z,99893.03
2022-09-20T15:09:58.014Z,99895.59
2022-09-20T15:12:37.131Z,99891.03
2022-09-20T15:15:18.273Z,99890.31
2022-09-20T15:17:57.722Z,99895.06
2022-09-20T15:20:39.795Z,99893.94
2022-09-20T15:23:56.915Z,99876.31
2022-09-20T15:26:41.400Z,99881.63
2022-09-20T15:29:35.388Z,99887.88
2022-09-20T15:32:10.787Z,99887.28
2022-09-20T15:34:59.143Z,99885.19
2022-09-20T15:37:39.760Z,99894.16
2022-09-20T15:40:35.476Z,99889.19
2022-09-20T15:43:07.851Z,99877.88
2022-09-20T15:49:40.313Z,99895.13
2022-09-20T15:52:19.107Z,99891.63
2022-09-20T15:55:05.609Z,99893.38
2022-09-20T16:00:48.627Z,99885.09
2022-09-20T16:03:36.243Z,99887.72
2022-09-20T16:06:19.320Z,99894.84
2022-09-20T16:09:10.780Z,99900.19
2022-09-20T16:12:01.853Z,99893.53
2022-09-20T16:14:43.411Z,99895.69
2022-09-20T16:20:56.273Z,99908.31
2022-09-20T16:23:49.622Z,99901.69
2022-09-20T16:26:31.184Z,99907.75
2022-09-20T16:29:30.933Z,99907.16
2022-09-20T16:32:11.783Z,99902.22
2022-09-20T16:34:49.569Z,99909.72
2022-09-20T16:37:53.378Z,99903.88
2022-09-20T16:40:58.214Z,99905.31
2022-09-20T16:44:16.142Z,99910.56
2022-09-20T16:47:03.171Z,99916.59
2022-09-20T16:49:51.161Z,99918.25
2022-09-20T16:52:33.064Z,99920.59
2022-09-20T16:55:37.368Z,99921.66
2022-09-20T16:58:48.452Z,99917.91
2022-09-20T17:01:36.352Z,99929.59
2022-09-20T17:04:15.354Z,99924.81
2022-09-20T17:06:57.385Z,99926.28
2022-09-20T17:09:53.638Z,99920.84
2022-09-20T17:12:34.585Z,99922.50
2022-09-20T17:15:22.301Z,99934.41
2022-09-20T17:18:15.400Z,99923.78
2022-09-20T17:20:56.102Z,99915.03
2022-09-20T17:24:06.342Z,99932.53
2022-09-20T17:30:18.058Z,99930.25
2022-09-20T17:33:11.411Z,99937.34
2022-09-20T17:35:55.546Z,99938.38
2022-09-20T17:38:38.678Z,99948.56
2022-09-20T17:44:17.961Z,99944.81
2022-09-20T17:47:33.630Z,99940.25
2022-09-20T17:50:03.752Z,99938.81
2022-09-20T17:53:31.056Z,99936.31
2022-09-20T17:56:26.529Z,99943.59
2022-09-20T17:59:09.985Z,99950.69
2022-09-20T18:06:23.105Z,99959.63
2022-09-20T18:12:05.473Z,99962.53
2022-09-20T18:14:45.975Z,99965.47
2022-09-20T18:17:21.885Z,99965.69
2022-09-20T18:20:09.732Z,99966.69
2022-09-20T18:22:42.245Z,99956.72
2022-09-20T18:25:18.742Z,99969.63
2022-09-20T18:27:58.235Z,99971.28
2022-09-20T18:30:42.707Z,99977.13
2022-09-20T18:33:21.733Z,99981.09
2022-09-20T18:35:58.760Z,99982.53
2022-09-20T18:38:33.262Z,99982.94
2022-09-20T18:41:17.966Z,99984.41
2022-09-20T18:44:02.261Z,99994.22
2022-09-20T18:47:11.353Z,99996.91
2022-09-20T18:50:18.085Z,100005.06
2022-09-20T18:53:08.953Z,100000.88
2022-09-20T18:55:57.156Z,99996.50
2022-09-20T18:58:48.915Z,99992.97
2022-09-20T19:01:57.979Z,99994.63
2022-09-20T19:05:24.754Z,100005.00
2022-09-20T19:08:40.191Z,99999.16
2022-09-20T19:11:25.919Z,99996.44
2022-09-20T19:15:00.489Z,99990.81
2022-09-20T19:18:04.920Z,99995.59
2022-09-20T19:20:59.199Z,99994.53
2022-09-20T19:24:05.868Z,99999.28
2022-09-20T19:29:31.287Z,99981.00
2022-09-20T19:32:15.201Z,99982.44
2022-09-20T19:35:23.336Z,99984.28
2022-09-20T19:38:18.088Z,99988.88
2022-09-20T19:41:13.651Z,99993.25
2022-09-20T19:44:22.096Z,99985.56
2022-09-20T19:47:27.684Z,99987.34
2022-09-20T19:50:25.444Z,99997.31
2022-09-20T19:52:58.154Z,99998.28
2022-09-20T19:55:27.973Z,99991.38
2022-09-20T19:57:55.932Z,99978.81
2022-09-20T20:00:24.418Z,100001.31
2022-09-20T20:02:56.320Z,100000.84
2022-09-20T20:05:29.113Z,99995.94
2022-09-20T20:08:15.548Z,100003.84
2022-09-20T20:11:12.462Z,100008.63
2022-09-20T20:14:13.327Z,100002.72
2022-09-20T20:16:50.857Z,100006.50
2022-09-20T20:19:51.831Z,100009.81
2022-09-20T20:23:06.539Z,100009.56
2022-09-20T20:26:12.556Z,100006.41
2022-09-20T20:28:44.409Z,100008.69
2022-09-20T20:31:13.684Z,100016.00
2022-09-20T20:33:44.053Z,100017.81
2022-09-20T20:36:12.647Z,100023.47
2022-09-20T20:38:42.797Z,100022.56
2022-09-20T20:41:14.628Z,100008.38
2022-09-20T20:43:49.789Z,100017.00
2022-09-20T20:46:21.108Z,100016.78
2022-09-20T20:48:58.340Z,100018.44
2022-09-20T20:51:29.722Z,100018.84
2022-09-20T20:54:03.835Z,99998.13
2022-09-20T20:56:45.886Z,100026.00
2022-09-20T20:59:25.949Z,100020.41
2022-09-20T21:05:17.066Z,100025.56
2022-09-20T21:07:58.479Z,100015.78
2022-09-20T21:10:41.506Z,100027.22
2022-09-20T21:13:13.662Z,100033.91
2022-09-20T21:16:12.976Z,100025.00
2022-09-20T21:19:09.843Z,100026.34
2022-09-20T21:22:35.151Z,100023.66
2022-09-20T21:25:12.331Z,100020.88
2022-09-20T21:28:14.613Z,100019.41
2022-09-20T21:31:06.402Z,100024.75
2022-09-20T21:34:03.909Z,100027.25
2022-09-20T21:36:35.789Z,100025.16
2022-09-20T21:39:10.493Z,100023.25
2022-09-20T21:41:42.540Z,100034.25
2022-09-20T21:44:16.775Z,100030.56
2022-09-20T21:47:02.940Z,100011.44
2022-09-20T21:49:48.905Z,100030.56
2022-09-20T21:52:28.227Z,100024.53
2022-09-20T21:55:28.434Z,100027.50
2022-09-20T21:58:10.627Z,100023.88
2022-09-20T22:00:47.708Z,100016.03
2022-09-20T22:03:22.872Z,100012.06
2022-09-20T22:06:18.950Z,100024.53
2022-09-20T22:09:18.562Z,100020.94
2022-09-20T22:11:51.426Z,100026.97
2022-09-20T22:14:22.075Z,100033.78
2022-09-20T22:17:15.129Z,100038.16
2022-09-20T22:20:35.823Z,100034.31
2022-09-20T22:23:09.541Z,100029.53
2022-09-20T22:25:46.438Z,100033.09
2022-09-20T22:28:28.626Z,100028.19
2022-09-20T22:31:15.706Z,100009.09
2022-09-20T22:34:16.966Z,100003.38
2022-09-20T22:36:50.831Z,100028.06
2022-09-20T22:39:24.982Z,100031.97
2022-09-20T22:42:00.153Z,100046.97
2022-09-20T22:44:31.562Z,100020.59
2022-09-20T22:47:08.916Z,100057.50
2022-09-20T22:49:43.266Z,100048.75
2022-09-20T22:52:19.948Z,100040.94
2022-09-20T22:54:54.475Z,100040.06
2022-09-20T22:57:38.632Z,100040.66
2022-09-20T23:00:35.673Z,100041.56
2022-09-20T23:03:09.461Z,100052.19
2022-09-20T23:05:42.927Z,100039.94
2022-09-20T23:08:51.834Z,100037.41
2022-09-20T23:11:27.097Z,100047.09
2022-09-20T23:14:35.632Z,100043.19
2022-09-20T23:17:15.506Z,100037.06
2022-09-20T23:19:49.359Z,100042.81
2022-09-20T23:22:31.924Z,100044.88
2022-09-20T23:25:06.913Z,100043.28
2022-09-20T23:28:01.307Z,100038.72
2022-09-20T23:30:34.008Z,100040.78
2022-09-20T23:33:03.529Z,100029.91
2022-09-20T23:35:44.753Z,100038.47
2022-09-20T23:38:21.313Z,100035.09
2022-09-20T23:40:54.587Z,100045.06
2022-09-20T23:43:24.229Z,100046.91
2022-09-20T23:46:00.231Z,100041.50
2022-09-20T23:48:29.904Z,100037.16
2022-09-20T23:51:01.866Z,100032.00
2022-09-20T23:53:42.443Z,100037.41
2022-09-20T23:56:24.885Z,100039.88
2022-09-20T23:58:53.300Z,100031.50
